sensor_id;sensor_type;location;lat;lon;timestamp;P1;durP1;ratioP1;P2;durP2;ratioP2
77010;SDS011;65945;53.148;17.956;2023-12-20T00:00:18;5.10;;;3.00;;
77010;SDS011;65945;53.148;17.956;2023-12-20T00:03:05;6.70;;;3.70;;
77010;SDS011;65945;53.148;17.956;2023-12-20T00:05:32;6.00;;;3.20;;
77010;SDS011;65945;53.148;17.956;2023-12-20T00:07:59;5.80;;;3.60;;
77010;SDS011;65945;53.148;17.956;2023-12-20T00:10:26;6.20;;;3.20;;
77010;SDS011;65945;53.148;17.956;2023-12-20T00:12:52;5.80;;;3.10;;
77010;SDS011;65945;53.148;17.956;2023-12-20T00:15:19;4.70;;;3.00;;
77010;SDS011;65945;53.148;17.956;2023-12-20T00:17:45;4.30;;;2.50;;
77010;SDS011;65945;53.148;17.956;2023-12-20T00:20:12;6.00;;;2.80;;
77010;SDS011;65945;53.148;17.956;2023-12-20T00:22:39;3.80;;;2.50;;
77010;SDS011;65945;53.148;17.956;2023-12-20T00:25:06;4.00;;;2.50;;
77010;SDS011;65945;53.148;17.956;2023-12-20T00:27:33;5.20;;;3.40;;
77010;SDS011;65945;53.148;17.956;2023-12-20T00:29:59;5.40;;;3.50;;
77010;SDS011;65945;53.148;17.956;2023-12-20T00:32:26;5.60;;;3.20;;
77010;SDS011;65945;53.148;17.956;2023-12-20T00:34:52;4.40;;;2.60;;
77010;SDS011;65945;53.148;17.956;2023-12-20T00:37:19;9.30;;;3.20;;
77010;SDS011;65945;53.148;17.956;2023-12-20T00:39:45;6.50;;;4.00;;
77010;SDS011;65945;53.148;17.956;2023-12-20T00:42:12;8.50;;;4.00;;
77010;SDS011;65945;53.148;17.956;2023-12-20T00:44:39;6.10;;;3.50;;
77010;SDS011;65945;53.148;17.956;2023-12-20T00:47:05;7.00;;;3.80;;
77010;SDS011;65945;53.148;17.956;2023-12-20T00:49:32;6.40;;;3.10;;
77010;SDS011;65945;53.148;17.956;2023-12-20T00:51:58;7.00;;;3.30;;
77010;SDS011;65945;53.148;17.956;2023-12-20T00:54:25;4.50;;;2.90;;
77010;SDS011;65945;53.148;17.956;2023-12-20T00:56:52;5.70;;;3.30;;
77010;SDS011;65945;53.148;17.956;2023-12-20T00:59:18;5.10;;;2.80;;
77010;SDS011;65945;53.148;17.956;2023-12-20T01:01:45;5.60;;;3.20;;
77010;SDS011;65945;53.148;17.956;2023-12-20T01:04:12;5.40;;;3.00;;
77010;SDS011;65945;53.148;17.956;2023-12-20T01:06:38;6.50;;;3.60;;
77010;SDS011;65945;53.148;17.956;2023-12-20T01:09:05;5.00;;;3.10;;
77010;SDS011;65945;53.148;17.956;2023-12-20T01:11:31;5.40;;;3.50;;
77010;SDS011;65945;53.148;17.956;2023-12-20T01:13:58;5.30;;;3.30;;
77010;SDS011;65945;53.148;17.956;2023-12-20T01:16:24;6.10;;;3.70;;
77010;SDS011;65945;53.148;17.956;2023-12-20T01:18:51;6.70;;;3.60;;
77010;SDS011;65945;53.148;17.956;2023-12-20T01:21:17;6.40;;;3.80;;
77010;SDS011;65945;53.148;17.956;2023-12-20T01:23:44;5.90;;;3.50;;
77010;SDS011;65945;53.148;17.956;2023-12-20T01:26:10;4.90;;;3.10;;
77010;SDS011;65945;53.148;17.956;2023-12-20T01:28:38;6.60;;;3.40;;
77010;SDS011;65945;53.148;17.956;2023-12-20T01:31:04;5.30;;;3.60;;
77010;SDS011;65945;53.148;17.956;2023-12-20T01:33:31;4.60;;;2.90;;
77010;SDS011;65945;53.148;17.956;2023-12-20T01:35:57;10.90;;;5.30;;
77010;SDS011;65945;53.148;17.956;2023-12-20T01:38:24;8.80;;;3.90;;
77010;SDS011;65945;53.148;17.956;2023-12-20T01:40:50;7.40;;;4.00;;
77010;SDS011;65945;53.148;17.956;2023-12-20T01:43:17;5.60;;;3.70;;
77010;SDS011;65945;53.148;17.956;2023-12-20T01:45:44;5.50;;;3.50;;
77010;SDS011;65945;53.148;17.956;2023-12-20T01:48:10;6.20;;;3.90;;
77010;SDS011;65945;53.148;17.956;2023-12-20T01:50:37;6.50;;;4.10;;
77010;SDS011;65945;53.148;17.956;2023-12-20T01:53:05;6.80;;;3.70;;
77010;SDS011;65945;53.148;17.956;2023-12-20T01:55:34;7.30;;;4.10;;
77010;SDS011;65945;53.148;17.956;2023-12-20T01:58:02;4.50;;;3.10;;
77010;SDS011;65945;53.148;17.956;2023-12-20T02:00:30;5.40;;;3.50;;
77010;SDS011;65945;53.148;17.956;2023-12-20T02:02:57;6.60;;;3.90;;
77010;SDS011;65945;53.148;17.956;2023-12-20T02:05:30;4.80;;;3.10;;
77010;SDS011;65945;53.148;17.956;2023-12-20T02:07:57;5.60;;;3.20;;
77010;SDS011;65945;53.148;17.956;2023-12-20T02:10:24;5.20;;;3.40;;
77010;SDS011;65945;53.148;17.956;2023-12-20T02:12:51;5.10;;;3.50;;
77010;SDS011;65945;53.148;17.956;2023-12-20T02:15:18;5.20;;;3.60;;
77010;SDS011;65945;53.148;17.956;2023-12-20T02:17:45;5.30;;;3.50;;
77010;SDS011;65945;53.148;17.956;2023-12-20T02:20:12;5.60;;;3.70;;
77010;SDS011;65945;53.148;17.956;2023-12-20T02:22:39;7.10;;;4.00;;
77010;SDS011;65945;53.148;17.956;2023-12-20T02:25:06;8.60;;;5.20;;
77010;SDS011;65945;53.148;17.956;2023-12-20T02:27:33;10.80;;;5.20;;
77010;SDS011;65945;53.148;17.956;2023-12-20T02:30:01;8.40;;;4.00;;
77010;SDS011;65945;53.148;17.956;2023-12-20T02:32:27;9.30;;;4.90;;
77010;SDS011;65945;53.148;17.956;2023-12-20T02:34:55;7.40;;;4.10;;
77010;SDS011;65945;53.148;17.956;2023-12-20T02:37:22;6.40;;;4.10;;
77010;SDS011;65945;53.148;17.956;2023-12-20T02:39:48;5.40;;;3.60;;
77010;SDS011;65945;53.148;17.956;2023-12-20T02:42:15;4.70;;;3.20;;
77010;SDS011;65945;53.148;17.956;2023-12-20T02:44:41;5.30;;;3.40;;
77010;SDS011;65945;53.148;17.956;2023-12-20T02:47:08;6.50;;;3.10;;
77010;SDS011;65945;53.148;17.956;2023-12-20T02:49:35;4.80;;;3.00;;
77010;SDS011;65945;53.148;17.956;2023-12-20T02:52:01;4.90;;;3.40;;
77010;SDS011;65945;53.148;17.956;2023-12-20T02:54:28;4.50;;;3.10;;
77010;SDS011;65945;53.148;17.956;2023-12-20T02:56:54;4.60;;;3.30;;
77010;SDS011;65945;53.148;17.956;2023-12-20T02:59:21;4.30;;;2.80;;
77010;SDS011;65945;53.148;17.956;2023-12-20T03:01:47;3.60;;;2.80;;
77010;SDS011;65945;53.148;17.956;2023-12-20T03:04:14;4.20;;;2.60;;
77010;SDS011;65945;53.148;17.956;2023-12-20T03:06:41;6.00;;;3.00;;
77010;SDS011;65945;53.148;17.956;2023-12-20T03:09:07;5.50;;;2.60;;
77010;SDS011;65945;53.148;17.956;2023-12-20T03:11:34;5.10;;;3.00;;
77010;SDS011;65945;53.148;17.956;2023-12-20T03:14:00;4.70;;;3.50;;
77010;SDS011;65945;53.148;17.956;2023-12-20T03:16:27;4.50;;;3.00;;
77010;SDS011;65945;53.148;17.956;2023-12-20T03:18:54;5.20;;;3.20;;
77010;SDS011;65945;53.148;17.956;2023-12-20T03:21:20;5.00;;;3.30;;
77010;SDS011;65945;53.148;17.956;2023-12-20T03:23:47;15.80;;;8.00;;
77010;SDS011;65945;53.148;17.956;2023-12-20T03:26:14;7.70;;;4.20;;
77010;SDS011;65945;53.148;17.956;2023-12-20T03:28:40;5.30;;;3.10;;
77010;SDS011;65945;53.148;17.956;2023-12-20T03:31:07;4.10;;;2.90;;
77010;SDS011;65945;53.148;17.956;2023-12-20T03:33:33;3.60;;;2.40;;
77010;SDS011;65945;53.148;17.956;2023-12-20T03:36:00;4.40;;;2.50;;
77010;SDS011;65945;53.148;17.956;2023-12-20T03:38:26;3.90;;;2.50;;
77010;SDS011;65945;53.148;17.956;2023-12-20T03:40:53;3.30;;;2.30;;
77010;SDS011;65945;53.148;17.956;2023-12-20T03:43:19;2.90;;;2.10;;
77010;SDS011;65945;53.148;17.956;2023-12-20T03:45:46;3.80;;;2.80;;
77010;SDS011;65945;53.148;17.956;2023-12-20T03:48:13;2.70;;;2.10;;
77010;SDS011;65945;53.148;17.956;2023-12-20T03:50:39;3.10;;;2.30;;
77010;SDS011;65945;53.148;17.956;2023-12-20T03:53:06;4.40;;;2.70;;
77010;SDS011;65945;53.148;17.956;2023-12-20T03:55:33;5.70;;;3.30;;
77010;SDS011;65945;53.148;17.956;2023-12-20T03:57:59;4.30;;;2.60;;
77010;SDS011;65945;53.148;17.956;2023-12-20T04:00:26;3.40;;;2.20;;
77010;SDS011;65945;53.148;17.956;2023-12-20T04:02:52;2.90;;;1.90;;
77010;SDS011;65945;53.148;17.956;2023-12-20T04:05:19;3.80;;;2.70;;
77010;SDS011;65945;53.148;17.956;2023-12-20T04:07:46;3.70;;;2.40;;
77010;SDS011;65945;53.148;17.956;2023-12-20T04:10:12;3.90;;;2.60;;
77010;SDS011;65945;53.148;17.956;2023-12-20T04:12:39;5.00;;;2.50;;
77010;SDS011;65945;53.148;17.956;2023-12-20T04:15:05;3.20;;;2.10;;
77010;SDS011;65945;53.148;17.956;2023-12-20T04:17:35;6.20;;;2.40;;
77010;SDS011;65945;53.148;17.956;2023-12-20T04:20:02;6.10;;;4.20;;
77010;SDS011;65945;53.148;17.956;2023-12-20T04:22:29;12.40;;;5.20;;
77010;SDS011;65945;53.148;17.956;2023-12-20T04:24:55;6.50;;;2.70;;
77010;SDS011;65945;53.148;17.956;2023-12-20T04:27:22;4.90;;;2.50;;
77010;SDS011;65945;53.148;17.956;2023-12-20T04:29:49;5.20;;;2.60;;
77010;SDS011;65945;53.148;17.956;2023-12-20T04:32:15;6.80;;;3.10;;
77010;SDS011;65945;53.148;17.956;2023-12-20T04:34:42;5.50;;;2.80;;
77010;SDS011;65945;53.148;17.956;2023-12-20T04:37:08;5.40;;;2.60;;
77010;SDS011;65945;53.148;17.956;2023-12-20T04:39:35;3.90;;;2.60;;
77010;SDS011;65945;53.148;17.956;2023-12-20T04:42:02;4.40;;;2.70;;
77010;SDS011;65945;53.148;17.956;2023-12-20T04:44:29;5.70;;;3.30;;
77010;SDS011;65945;53.148;17.956;2023-12-20T04:46:55;6.80;;;3.60;;
77010;SDS011;65945;53.148;17.956;2023-12-20T04:49:23;4.30;;;2.70;;
77010;SDS011;65945;53.148;17.956;2023-12-20T04:51:49;7.00;;;3.80;;
77010;SDS011;65945;53.148;17.956;2023-12-20T04:54:16;7.40;;;3.90;;
77010;SDS011;65945;53.148;17.956;2023-12-20T04:56:42;4.80;;;3.00;;
77010;SDS011;65945;53.148;17.956;2023-12-20T04:59:09;5.70;;;3.20;;
77010;SDS011;65945;53.148;17.956;2023-12-20T05:01:35;6.00;;;3.10;;
77010;SDS011;65945;53.148;17.956;2023-12-20T05:04:02;5.60;;;3.20;;
77010;SDS011;65945;53.148;17.956;2023-12-20T05:06:29;5.80;;;3.30;;
77010;SDS011;65945;53.148;17.956;2023-12-20T05:08:55;7.00;;;3.40;;
77010;SDS011;65945;53.148;17.956;2023-12-20T05:11:22;7.60;;;3.80;;
77010;SDS011;65945;53.148;17.956;2023-12-20T05:13:48;8.60;;;4.90;;
77010;SDS011;65945;53.148;17.956;2023-12-20T05:16:15;7.80;;;4.40;;
77010;SDS011;65945;53.148;17.956;2023-12-20T05:18:44;8.90;;;4.40;;
77010;SDS011;65945;53.148;17.956;2023-12-20T05:21:11;9.10;;;5.00;;
77010;SDS011;65945;53.148;17.956;2023-12-20T05:23:38;8.60;;;4.70;;
77010;SDS011;65945;53.148;17.956;2023-12-20T05:26:05;10.10;;;5.10;;
77010;SDS011;65945;53.148;17.956;2023-12-20T05:28:31;8.10;;;4.10;;
77010;SDS011;65945;53.148;17.956;2023-12-20T05:30:58;9.20;;;4.90;;
77010;SDS011;65945;53.148;17.956;2023-12-20T05:33:24;8.50;;;4.10;;
77010;SDS011;65945;53.148;17.956;2023-12-20T05:35:51;7.60;;;4.40;;
77010;SDS011;65945;53.148;17.956;2023-12-20T05:38:18;7.10;;;3.90;;
77010;SDS011;65945;53.148;17.956;2023-12-20T05:40:44;6.20;;;3.70;;
77010;SDS011;65945;53.148;17.956;2023-12-20T05:43:11;7.30;;;3.50;;
77010;SDS011;65945;53.148;17.956;2023-12-20T05:45:38;8.20;;;4.00;;
77010;SDS011;65945;53.148;17.956;2023-12-20T05:48:05;7.20;;;3.80;;
77010;SDS011;65945;53.148;17.956;2023-12-20T05:50:32;8.20;;;4.10;;
77010;SDS011;65945;53.148;17.956;2023-12-20T05:52:58;7.20;;;4.30;;
77010;SDS011;65945;53.148;17.956;2023-12-20T05:55:25;6.90;;;4.10;;
77010;SDS011;65945;53.148;17.956;2023-12-20T05:57:51;7.10;;;4.30;;
77010;SDS011;65945;53.148;17.956;2023-12-20T06:00:18;9.20;;;4.20;;
77010;SDS011;65945;53.148;17.956;2023-12-20T06:02:45;8.90;;;5.00;;
77010;SDS011;65945;53.148;17.956;2023-12-20T06:05:12;8.60;;;4.60;;
77010;SDS011;65945;53.148;17.956;2023-12-20T06:07:38;9.10;;;5.30;;
77010;SDS011;65945;53.148;17.956;2023-12-20T06:10:05;10.40;;;5.10;;
77010;SDS011;65945;53.148;17.956;2023-12-20T06:12:32;12.80;;;5.10;;
77010;SDS011;65945;53.148;17.956;2023-12-20T06:15:02;17.00;;;8.50;;
77010;SDS011;65945;53.148;17.956;2023-12-20T06:17:29;10.10;;;5.30;;
77010;SDS011;65945;53.148;17.956;2023-12-20T06:19:57;14.80;;;5.60;;
77010;SDS011;65945;53.148;17.956;2023-12-20T06:22:24;13.70;;;5.30;;
77010;SDS011;65945;53.148;17.956;2023-12-20T06:24:50;10.00;;;5.40;;
77010;SDS011;65945;53.148;17.956;2023-12-20T06:27:17;9.30;;;4.90;;
77010;SDS011;65945;53.148;17.956;2023-12-20T06:29:44;9.10;;;4.90;;
77010;SDS011;65945;53.148;17.956;2023-12-20T06:32:11;9.60;;;5.10;;
77010;SDS011;65945;53.148;17.956;2023-12-20T06:34:38;10.20;;;5.20;;
77010;SDS011;65945;53.148;17.956;2023-12-20T06:37:04;10.40;;;6.10;;
77010;SDS011;65945;53.148;17.956;2023-12-20T06:39:31;9.80;;;5.50;;
77010;SDS011;65945;53.148;17.956;2023-12-20T06:42:00;11.20;;;5.50;;
77010;SDS011;65945;53.148;17.956;2023-12-20T06:44:27;10.10;;;5.30;;
77010;SDS011;65945;53.148;17.956;2023-12-20T06:46:53;12.80;;;5.70;;
77010;SDS011;65945;53.148;17.956;2023-12-20T06:49:20;11.70;;;5.90;;
77010;SDS011;65945;53.148;17.956;2023-12-20T06:51:46;14.70;;;7.20;;
77010;SDS011;65945;53.148;17.956;2023-12-20T06:54:13;18.60;;;8.20;;
77010;SDS011;65945;53.148;17.956;2023-12-20T06:56:40;14.40;;;7.10;;
77010;SDS011;65945;53.148;17.956;2023-12-20T06:59:07;17.60;;;8.10;;
77010;SDS011;65945;53.148;17.956;2023-12-20T07:01:34;18.50;;;8.30;;
77010;SDS011;65945;53.148;17.956;2023-12-20T07:04:00;17.50;;;7.40;;
77010;SDS011;65945;53.148;17.956;2023-12-20T07:06:27;16.80;;;7.70;;
77010;SDS011;65945;53.148;17.956;2023-12-20T07:08:53;17.90;;;7.90;;
77010;SDS011;65945;53.148;17.956;2023-12-20T07:11:20;17.80;;;10.00;;
77010;SDS011;65945;53.148;17.956;2023-12-20T07:13:47;22.70;;;9.00;;
77010;SDS011;65945;53.148;17.956;2023-12-20T07:16:14;16.60;;;8.10;;
77010;SDS011;65945;53.148;17.956;2023-12-20T07:18:40;15.50;;;8.00;;
77010;SDS011;65945;53.148;17.956;2023-12-20T07:21:07;19.10;;;9.70;;
77010;SDS011;65945;53.148;17.956;2023-12-20T07:23:34;18.50;;;10.30;;
77010;SDS011;65945;53.148;17.956;2023-12-20T07:26:00;18.30;;;9.50;;
77010;SDS011;65945;53.148;17.956;2023-12-20T07:28:27;17.80;;;9.60;;
77010;SDS011;65945;53.148;17.956;2023-12-20T07:30:54;19.70;;;9.70;;
77010;SDS011;65945;53.148;17.956;2023-12-20T07:33:21;17.10;;;8.60;;
77010;SDS011;65945;53.148;17.956;2023-12-20T07:35:48;19.90;;;10.30;;
77010;SDS011;65945;53.148;17.956;2023-12-20T07:38:14;18.90;;;8.90;;
77010;SDS011;65945;53.148;17.956;2023-12-20T07:40:41;18.90;;;10.20;;
77010;SDS011;65945;53.148;17.956;2023-12-20T07:43:07;19.40;;;10.10;;
77010;SDS011;65945;53.148;17.956;2023-12-20T07:45:34;25.30;;;10.40;;
77010;SDS011;65945;53.148;17.956;2023-12-20T07:48:01;20.10;;;10.50;;
77010;SDS011;65945;53.148;17.956;2023-12-20T07:50:27;16.80;;;8.60;;
77010;SDS011;65945;53.148;17.956;2023-12-20T07:52:54;18.60;;;8.60;;
77010;SDS011;65945;53.148;17.956;2023-12-20T07:55:21;20.10;;;8.60;;
77010;SDS011;65945;53.148;17.956;2023-12-20T07:57:47;18.80;;;8.30;;
77010;SDS011;65945;53.148;17.956;2023-12-20T08:00:14;15.20;;;7.30;;
77010;SDS011;65945;53.148;17.956;2023-12-20T08:02:41;18.90;;;7.70;;
77010;SDS011;65945;53.148;17.956;2023-12-20T08:05:08;17.50;;;8.10;;
77010;SDS011;65945;53.148;17.956;2023-12-20T08:07:34;18.20;;;8.40;;
77010;SDS011;65945;53.148;17.956;2023-12-20T08:10:01;14.00;;;7.60;;
77010;SDS011;65945;53.148;17.956;2023-12-20T08:12:27;16.20;;;7.90;;
77010;SDS011;65945;53.148;17.956;2023-12-20T08:14:54;15.00;;;7.20;;
77010;SDS011;65945;53.148;17.956;2023-12-20T08:17:21;18.70;;;6.70;;
77010;SDS011;65945;53.148;17.956;2023-12-20T08:19:49;18.50;;;6.40;;
77010;SDS011;65945;53.148;17.956;2023-12-20T08:22:16;14.20;;;6.60;;
77010;SDS011;65945;53.148;17.956;2023-12-20T08:24:42;13.60;;;4.30;;
77010;SDS011;65945;53.148;17.956;2023-12-20T08:27:09;13.20;;;5.50;;
77010;SDS011;65945;53.148;17.956;2023-12-20T08:29:36;13.30;;;6.30;;
77010;SDS011;65945;53.148;17.956;2023-12-20T08:32:02;12.30;;;5.20;;
77010;SDS011;65945;53.148;17.956;2023-12-20T08:34:29;10.70;;;4.00;;
77010;SDS011;65945;53.148;17.956;2023-12-20T08:36:56;15.80;;;5.40;;
77010;SDS011;65945;53.148;17.956;2023-12-20T08:39:23;10.20;;;5.10;;
77010;SDS011;65945;53.148;17.956;2023-12-20T08:41:49;8.00;;;3.60;;
77010;SDS011;65945;53.148;17.956;2023-12-20T08:44:16;13.90;;;5.30;;
77010;SDS011;65945;53.148;17.956;2023-12-20T08:46:43;12.60;;;5.00;;
77010;SDS011;65945;53.148;17.956;2023-12-20T08:49:09;15.80;;;5.10;;
77010;SDS011;65945;53.148;17.956;2023-12-20T08:51:36;12.20;;;4.40;;
77010;SDS011;65945;53.148;17.956;2023-12-20T08:54:06;14.60;;;5.00;;
77010;SDS011;65945;53.148;17.956;2023-12-20T08:56:34;10.30;;;4.10;;
77010;SDS011;65945;53.148;17.956;2023-12-20T08:59:01;10.10;;;3.40;;
77010;SDS011;65945;53.148;17.956;2023-12-20T09:01:27;8.20;;;3.80;;
77010;SDS011;65945;53.148;17.956;2023-12-20T09:03:54;11.10;;;4.10;;
77010;SDS011;65945;53.148;17.956;2023-12-20T09:06:21;11.00;;;4.20;;
77010;SDS011;65945;53.148;17.956;2023-12-20T09:08:47;9.20;;;3.70;;
77010;SDS011;65945;53.148;17.956;2023-12-20T09:11:14;9.70;;;3.70;;
77010;SDS011;65945;53.148;17.956;2023-12-20T09:13:41;9.30;;;4.90;;
77010;SDS011;65945;53.148;17.956;2023-12-20T09:16:08;15.40;;;5.30;;
77010;SDS011;65945;53.148;17.956;2023-12-20T09:18:34;9.50;;;4.50;;
77010;SDS011;65945;53.148;17.956;2023-12-20T09:21:02;14.40;;;5.90;;
77010;SDS011;65945;53.148;17.956;2023-12-20T09:23:28;9.90;;;4.30;;
77010;SDS011;65945;53.148;17.956;2023-12-20T09:25:55;15.40;;;5.20;;
77010;SDS011;65945;53.148;17.956;2023-12-20T09:28:22;7.70;;;3.30;;
77010;SDS011;65945;53.148;17.956;2023-12-20T09:30:48;10.70;;;3.90;;
77010;SDS011;65945;53.148;17.956;2023-12-20T09:33:15;16.10;;;3.70;;
77010;SDS011;65945;53.148;17.956;2023-12-20T09:35:42;9.80;;;2.90;;
77010;SDS011;65945;53.148;17.956;2023-12-20T09:38:09;8.10;;;3.60;;
77010;SDS011;65945;53.148;17.956;2023-12-20T09:40:35;8.00;;;3.00;;
77010;SDS011;65945;53.148;17.956;2023-12-20T09:43:11;8.90;;;3.20;;
77010;SDS011;65945;53.148;17.956;2023-12-20T09:45:41;7.40;;;2.50;;
77010;SDS011;65945;53.148;17.956;2023-12-20T09:48:11;9.40;;;3.70;;
77010;SDS011;65945;53.148;17.956;2023-12-20T09:50:40;7.60;;;2.70;;
77010;SDS011;65945;53.148;17.956;2023-12-20T09:53:08;6.50;;;2.50;;
77010;SDS011;65945;53.148;17.956;2023-12-20T09:55:36;7.80;;;3.00;;
77010;SDS011;65945;53.148;17.956;2023-12-20T09:58:03;11.90;;;3.50;;
77010;SDS011;65945;53.148;17.956;2023-12-20T10:00:31;7.70;;;3.30;;
77010;SDS011;65945;53.148;17.956;2023-12-20T10:02:58;10.50;;;3.90;;
77010;SDS011;65945;53.148;17.956;2023-12-20T10:05:28;9.10;;;3.40;;
77010;SDS011;65945;53.148;17.956;2023-12-20T10:07:55;5.40;;;2.60;;
77010;SDS011;65945;53.148;17.956;2023-12-20T10:10:23;10.80;;;2.60;;
77010;SDS011;65945;53.148;17.956;2023-12-20T10:13:06;5.20;;;2.20;;
77010;SDS011;65945;53.148;17.956;2023-12-20T10:15:35;9.20;;;3.10;;
77010;SDS011;65945;53.148;17.956;2023-12-20T10:18:04;7.00;;;2.30;;
77010;SDS011;65945;53.148;17.956;2023-12-20T10:20:31;8.00;;;2.80;;
77010;SDS011;65945;53.148;17.956;2023-12-20T10:22:59;7.40;;;3.00;;
77010;SDS011;65945;53.148;17.956;2023-12-20T10:25:26;4.90;;;2.40;;
77010;SDS011;65945;53.148;17.956;2023-12-20T10:28:09;10.00;;;2.90;;
77010;SDS011;65945;53.148;17.956;2023-12-20T10:30:49;9.70;;;3.30;;
77010;SDS011;65945;53.148;17.956;2023-12-20T10:33:25;9.50;;;3.30;;
77010;SDS011;65945;53.148;17.956;2023-12-20T10:35:53;8.20;;;2.80;;
77010;SDS011;65945;53.148;17.956;2023-12-20T10:38:20;8.30;;;3.20;;
77010;SDS011;65945;53.148;17.956;2023-12-20T10:40:47;6.20;;;2.60;;
77010;SDS011;65945;53.148;17.956;2023-12-20T10:43:14;7.60;;;3.40;;
77010;SDS011;65945;53.148;17.956;2023-12-20T10:45:43;7.20;;;3.10;;
77010;SDS011;65945;53.148;17.956;2023-12-20T10:48:10;12.30;;;4.10;;
77010;SDS011;65945;53.148;17.956;2023-12-20T10:50:38;6.90;;;2.90;;
77010;SDS011;65945;53.148;17.956;2023-12-20T10:53:06;11.50;;;4.10;;
77010;SDS011;65945;53.148;17.956;2023-12-20T10:55:33;11.00;;;3.80;;
77010;SDS011;65945;53.148;17.956;2023-12-20T10:58:01;10.80;;;4.00;;
77010;SDS011;65945;53.148;17.956;2023-12-20T11:00:29;7.10;;;2.50;;
77010;SDS011;65945;53.148;17.956;2023-12-20T11:02:58;8.20;;;2.90;;
77010;SDS011;65945;53.148;17.956;2023-12-20T11:08:22;8.90;;;3.40;;
77010;SDS011;65945;53.148;17.956;2023-12-20T11:11:05;9.60;;;2.60;;
77010;SDS011;65945;53.148;17.956;2023-12-20T11:13:37;7.30;;;2.50;;
77010;SDS011;65945;53.148;17.956;2023-12-20T11:16:10;5.20;;;2.10;;
77010;SDS011;65945;53.148;17.956;2023-12-20T11:18:37;11.20;;;3.40;;
77010;SDS011;65945;53.148;17.956;2023-12-20T11:21:07;9.80;;;3.20;;
77010;SDS011;65945;53.148;17.956;2023-12-20T11:23:34;5.20;;;1.90;;
77010;SDS011;65945;53.148;17.956;2023-12-20T11:26:01;6.20;;;2.30;;
77010;SDS011;65945;53.148;17.956;2023-12-20T11:28:29;5.10;;;2.60;;
77010;SDS011;65945;53.148;17.956;2023-12-20T11:31:00;8.90;;;2.90;;
77010;SDS011;65945;53.148;17.956;2023-12-20T11:33:37;7.50;;;3.00;;
77010;SDS011;65945;53.148;17.956;2023-12-20T11:36:12;6.90;;;2.60;;
77010;SDS011;65945;53.148;17.956;2023-12-20T11:38:58;12.20;;;3.40;;
77010;SDS011;65945;53.148;17.956;2023-12-20T11:41:26;7.30;;;2.40;;
77010;SDS011;65945;53.148;17.956;2023-12-20T11:43:53;6.80;;;2.20;;
77010;SDS011;65945;53.148;17.956;2023-12-20T11:46:21;10.40;;;2.50;;
77010;SDS011;65945;53.148;17.956;2023-12-20T11:48:48;7.40;;;2.80;;
77010;SDS011;65945;53.148;17.956;2023-12-20T11:51:15;7.80;;;2.40;;
77010;SDS011;65945;53.148;17.956;2023-12-20T11:53:41;7.80;;;3.20;;
77010;SDS011;65945;53.148;17.956;2023-12-20T11:56:09;13.30;;;3.20;;
77010;SDS011;65945;53.148;17.956;2023-12-20T11:58:36;10.00;;;3.40;;
77010;SDS011;65945;53.148;17.956;2023-12-20T12:01:03;6.90;;;2.80;;
77010;SDS011;65945;53.148;17.956;2023-12-20T12:03:33;6.30;;;2.70;;
77010;SDS011;65945;53.148;17.956;2023-12-20T12:06:00;6.30;;;2.00;;
77010;SDS011;65945;53.148;17.956;2023-12-20T12:08:28;6.00;;;2.40;;
77010;SDS011;65945;53.148;17.956;2023-12-20T12:10:55;9.70;;;3.20;;
77010;SDS011;65945;53.148;17.956;2023-12-20T12:13:22;10.00;;;3.10;;
77010;SDS011;65945;53.148;17.956;2023-12-20T12:15:49;9.60;;;2.20;;
77010;SDS011;65945;53.148;17.956;2023-12-20T12:18:17;11.70;;;3.80;;
77010;SDS011;65945;53.148;17.956;2023-12-20T12:20:44;10.60;;;3.50;;
77010;SDS011;65945;53.148;17.956;2023-12-20T12:23:10;13.50;;;3.40;;
77010;SDS011;65945;53.148;17.956;2023-12-20T12:25:37;13.10;;;3.70;;
77010;SDS011;65945;53.148;17.956;2023-12-20T12:28:04;6.50;;;2.90;;
77010;SDS011;65945;53.148;17.956;2023-12-20T12:30:31;11.80;;;3.30;;
77010;SDS011;65945;53.148;17.956;2023-12-20T12:32:58;11.40;;;3.20;;
77010;SDS011;65945;53.148;17.956;2023-12-20T12:35:24;10.90;;;4.10;;
77010;SDS011;65945;53.148;17.956;2023-12-20T12:37:51;10.00;;;4.10;;
77010;SDS011;65945;53.148;17.956;2023-12-20T12:40:18;7.10;;;3.30;;
77010;SDS011;65945;53.148;17.956;2023-12-20T12:42:47;11.40;;;3.30;;
77010;SDS011;65945;53.148;17.956;2023-12-20T12:45:14;6.60;;;3.00;;
77010;SDS011;65945;53.148;17.956;2023-12-20T12:47:40;5.30;;;2.60;;
77010;SDS011;65945;53.148;17.956;2023-12-20T12:50:07;7.90;;;2.40;;
77010;SDS011;65945;53.148;17.956;2023-12-20T12:52:35;3.60;;;1.90;;
77010;SDS011;65945;53.148;17.956;2023-12-20T12:55:01;7.30;;;2.00;;
77010;SDS011;65945;53.148;17.956;2023-12-20T12:57:31;9.80;;;2.80;;
77010;SDS011;65945;53.148;17.956;2023-12-20T12:59:58;8.10;;;2.90;;
77010;SDS011;65945;53.148;17.956;2023-12-20T13:02:24;7.20;;;2.30;;
77010;SDS011;65945;53.148;17.956;2023-12-20T13:04:51;9.90;;;3.30;;
77010;SDS011;65945;53.148;17.956;2023-12-20T13:07:18;8.80;;;3.30;;
77010;SDS011;65945;53.148;17.956;2023-12-20T13:09:44;12.90;;;4.10;;
77010;SDS011;65945;53.148;17.956;2023-12-20T13:12:11;11.10;;;3.80;;
77010;SDS011;65945;53.148;17.956;2023-12-20T13:14:38;6.40;;;2.60;;
77010;SDS011;65945;53.148;17.956;2023-12-20T13:17:04;7.80;;;3.80;;
77010;SDS011;65945;53.148;17.956;2023-12-20T13:19:32;12.40;;;4.70;;
77010;SDS011;65945;53.148;17.956;2023-12-20T13:21:58;7.40;;;3.10;;
77010;SDS011;65945;53.148;17.956;2023-12-20T13:24:25;5.50;;;3.10;;
77010;SDS011;65945;53.148;17.956;2023-12-20T13:26:52;8.10;;;3.10;;
77010;SDS011;65945;53.148;17.956;2023-12-20T13:29:19;5.70;;;2.70;;
77010;SDS011;65945;53.148;17.956;2023-12-20T13:31:45;5.70;;;2.00;;
77010;SDS011;65945;53.148;17.956;2023-12-20T13:34:12;3.00;;;1.30;;
77010;SDS011;65945;53.148;17.956;2023-12-20T13:36:39;7.70;;;2.50;;
77010;SDS011;65945;53.148;17.956;2023-12-20T13:39:05;6.60;;;2.70;;
77010;SDS011;65945;53.148;17.956;2023-12-20T13:41:33;5.20;;;1.90;;
77010;SDS011;65945;53.148;17.956;2023-12-20T13:43:59;10.00;;;3.20;;
77010;SDS011;65945;53.148;17.956;2023-12-20T13:46:28;6.90;;;2.70;;
77010;SDS011;65945;53.148;17.956;2023-12-20T13:48:54;7.40;;;2.50;;
77010;SDS011;65945;53.148;17.956;2023-12-20T13:51:21;7.10;;;2.20;;
77010;SDS011;65945;53.148;17.956;2023-12-20T13:53:48;14.80;;;2.70;;
77010;SDS011;65945;53.148;17.956;2023-12-20T13:56:15;8.20;;;2.90;;
77010;SDS011;65945;53.148;17.956;2023-12-20T13:58:42;13.70;;;5.00;;
77010;SDS011;65945;53.148;17.956;2023-12-20T14:01:09;5.50;;;2.50;;
77010;SDS011;65945;53.148;17.956;2023-12-20T14:03:38;9.50;;;3.80;;
77010;SDS011;65945;53.148;17.956;2023-12-20T14:06:05;7.30;;;2.80;;
77010;SDS011;65945;53.148;17.956;2023-12-20T14:08:32;11.40;;;3.50;;
77010;SDS011;65945;53.148;17.956;2023-12-20T14:10:58;11.40;;;4.20;;
77010;SDS011;65945;53.148;17.956;2023-12-20T14:13:25;12.50;;;4.20;;
77010;SDS011;65945;53.148;17.956;2023-12-20T14:15:52;17.00;;;4.40;;
77010;SDS011;65945;53.148;17.956;2023-12-20T14:18:20;13.30;;;3.50;;
77010;SDS011;65945;53.148;17.956;2023-12-20T14:20:47;14.00;;;4.30;;
77010;SDS011;65945;53.148;17.956;2023-12-20T14:23:14;15.90;;;4.50;;
77010;SDS011;65945;53.148;17.956;2023-12-20T14:25:41;13.70;;;4.20;;
77010;SDS011;65945;53.148;17.956;2023-12-20T14:28:08;9.60;;;3.70;;
77010;SDS011;65945;53.148;17.956;2023-12-20T14:30:36;12.20;;;3.80;;
77010;SDS011;65945;53.148;17.956;2023-12-20T14:33:04;10.70;;;3.90;;